Accueil
METAR-TAF:

METAR-TAF

Aéroports :

Aéroport de Reus

Reus, Espagne

latitude: 41-09N, longitude: 001-10E, altitude: 71 m

Observation

Le bulletin a été fait il y a 39 minutes, à 04:00 UTC
Vent calme
Température 7°C
Humidité 61%
Pression 1023 hPa
Visibilité 10 km ou plus

METAR: LERS 240400Z AUTO 00000KT 9999 NCD 07/M00 Q1023

Heure: 05:39 (04:39 UTC)

Prévision

Le bulletin a été fait il y a 2 heures et 39 minutes, à 02:00 UTC
Prévision valable du 24 à 03 UTC au 25 à 03 UTC
Vent 3 kt de direction variable
Visibilité 10 km ou plus
Quelques nuages à une hauteur de 3000 ft
Temporairement
du 24 à 06 UTC au 24 à 10 UTC
Vent 7 kt de nord
Evoluant progressivement
du 24 à 10 UTC au 24 à 12 UTC
Vent 6 kt de sud
Evoluant progressivement
du 24 à 17 UTC au 24 à 20 UTC
Vent 3 kt de direction variable

TAF: LERS 240200Z 2403/2503 VRB03KT 9999 FEW030 TX21/2412Z TN08/2406Z TEMPO 2406/2410 01007KT BECMG 2410/2412 17006KT BECMG 2417/2420 VRB03KT

Observations et prévisions météorologiques de plus de 4000 aéroports (messages METAR et TAF).

Les stations disponibles sont représentées par des disques jaunes et rouges sur la carte.

Passer la souris dessus pour voir le nom de la station.

Cliquer dessus pour voir les observations et prévisions météorologiques.

Pour changer de carte: cliquez sur les boutons verts avec une croix noire pour zoomer, sur le bouton vert avec un tiret pour effectuer un zoom arrière, ou sur les flèches vertes pour les cartes adjacentes.


METAR-TAF: